Time;durP1;ratioP1;P1;durP2;ratioP2;P2;SDS_P1;SDS_P2;PMS_P1;PMS_P2;Temp;Humidity;BMP_temperature;BMP_pressure;BME280_temperature;BME280_humidity;BME280_pressure;Samples;Min_cycle;Max_cycle;Signal;HPM_P1;HPM_P2
2021/12/16 00:09:10;;;;;;;;;;;0.70;99.90;;;;;;5034312;28;20072;-80
2021/12/16 00:33:42;;;;;;;10.20;6.95;;;0.60;99.90;;;;;;5034335;28;20080;-79
2021/12/16 00:36:10;;;;;;;12.95;7.40;;;0.60;99.90;;;;;;5034973;28;20045;-80
2021/12/16 00:38:38;;;;;;;12.32;7.60;;;0.50;99.90;;;;;;5033828;28;20029;-79
2021/12/16 00:41:04;;;;;;;11.38;7.38;;;0.50;99.90;;;;;;5016086;28;20037;-79
2021/12/16 00:43:39;;;;;;;11.98;7.10;;;0.60;99.90;;;;;;5015937;28;20510;-80
2021/12/16 00:54:10;;;;;;;10.68;6.85;;;0.50;99.90;;;;;;5034076;28;20091;-80
2021/12/16 00:56:50;;;;;;;11.98;7.25;;;0.50;99.90;;;;;;5017113;28;20045;-80
2021/12/16 00:59:18;;;;;;;10.30;6.75;;;0.50;99.90;;;;;;5016268;28;20111;-79
2021/12/16 01:01:54;;;;;;;10.00;6.65;;;0.50;99.90;;;;;;5016243;28;20392;-81
2021/12/16 01:34:59;;;;;;;7.88;4.63;;;0.40;99.90;;;;;;5037335;28;20139;-79
2021/12/16 01:50:26;;;;;;;10.25;6.10;;;0.30;99.90;;;;;;5037031;28;20185;-80
2021/12/16 01:55:43;;;;;;;12.68;6.57;;;0.40;99.90;;;;;;5036698;28;20067;-80
2021/12/16 01:58:18;;;;;;;14.52;7.65;;;0.40;99.90;;;;;;5035637;28;20052;-80
2021/12/16 02:00:56;;;;;;;11.52;6.40;;;0.30;99.90;;;;;;5019460;28;20554;-79
2021/12/16 02:03:28;;;;;;;10.57;5.88;;;0.30;99.90;;;;;;5019255;28;20048;-79
2021/12/16 02:08:43;;;;;;;9.65;5.53;;;0.30;99.90;;;;;;5017318;28;20041;-80
2021/12/16 02:12:07;;;;;;;9.07;5.40;;;0.30;99.90;;;;;;5036579;28;20032;-80
2021/12/16 02:36:13;;;;;;;6.15;4.15;;;0.30;99.90;;;;;;5016811;28;20554;-80
2021/12/16 02:38:42;;;;;;;8.23;3.85;;;0.30;99.90;;;;;;5015252;28;20034;-80
2021/12/16 02:41:08;;;;;;;6.05;3.85;;;0.40;99.90;;;;;;5016203;28;20037;-80
2021/12/16 02:48:41;;;;;;;6.50;4.07;;;0.40;99.90;;;;;;5017587;28;20467;-79
2021/12/16 02:51:18;;;;;;;6.22;3.85;;;0.40;99.90;;;;;;5015934;28;20128;-80
2021/12/16 02:54:14;;;;;;;5.85;3.90;;;0.40;99.90;;;;;;5016092;28;20034;-80
2021/12/16 02:56:39;;;;;;;5.85;4.13;;;0.40;99.90;;;;;;5006245;28;20476;-80
2021/12/16 02:59:06;;;;;;;5.75;4.03;;;0.30;99.90;;;;;;5015510;28;20061;-79
2021/12/16 03:01:40;;;;;;;7.80;4.72;;;0.40;99.90;;;;;;5014883;28;20069;-79
2021/12/16 03:04:09;;;;;;;7.53;4.40;;;0.30;99.90;;;;;;5014329;28;20037;-79
2021/12/16 03:06:36;;;;;;;6.97;4.00;;;0.40;99.90;;;;;;5015632;28;20037;-79
2021/12/16 03:09:06;;;;;;;9.60;4.80;;;0.40;99.90;;;;;;5014014;28;20038;-80
2021/12/16 03:11:45;;;;;;;8.90;5.28;;;0.30;99.90;;;;;;5014157;28;20038;-79
2021/12/16 03:19:18;;;;;;;7.10;4.28;;;0.30;99.90;;;;;;5015489;28;20180;-80
2021/12/16 03:21:50;;;;;;;8.10;4.68;;;0.40;99.90;;;;;;5014700;28;20046;-80
2021/12/16 03:27:40;;;;;;;6.25;3.78;;;0.30;99.90;;;;;;4993170;28;20066;-79
2021/12/16 03:30:36;;;;;;;6.43;3.90;;;0.40;99.90;;;;;;5013770;28;20042;-80
2021/12/16 03:33:28;;;;;;;5.32;3.53;;;0.40;99.90;;;;;;5015032;28;20460;-79
2021/12/16 03:38:45;;;;;;;6.47;4.03;;;0.30;99.90;;;;;;5004051;28;20033;-79
2021/12/16 03:41:12;;;;;;;5.05;3.22;;;0.30;99.90;;;;;;5017183;28;20448;-78
2021/12/16 03:43:39;;;;;;;5.13;3.25;;;0.30;99.90;;;;;;5016145;28;20044;-79
2021/12/16 03:48:47;;;;;;;4.50;3.08;;;0.30;99.90;;;;;;5034445;28;20116;-80
2021/12/16 03:51:21;;;;;;;3.95;2.90;;;0.30;99.90;;;;;;5017139;28;20034;-79
2021/12/16 03:53:50;;;;;;;3.88;2.58;;;0.40;99.90;;;;;;5016117;28;20464;-79
2021/12/16 03:56:17;;;;;;;4.13;2.50;;;0.40;99.90;;;;;;5015928;28;20484;-79
2021/12/16 03:58:43;;;;;;;4.03;2.70;;;0.40;99.90;;;;;;5034266;28;20045;-80
2021/12/16 04:01:15;;;;;;;3.92;2.50;;;0.40;99.90;;;;;;5032790;28;20049;-80
2021/12/16 04:03:41;;;;;;;4.80;3.20;;;0.40;99.90;;;;;;5035544;28;20033;-80
2021/12/16 04:06:08;;;;;;;5.75;3.53;;;0.40;99.90;;;;;;5034544;28;20112;-80
2021/12/16 04:08:34;;;;;;;5.25;3.00;;;0.40;99.90;;;;;;5013577;28;20408;-80
2021/12/16 04:11:20;;;;;;;4.72;2.72;;;0.40;99.90;;;;;;4997969;28;20041;-80
2021/12/16 04:14:00;;;;;;;4.43;2.67;;;0.40;99.90;;;;;;5014709;28;20034;-80
2021/12/16 04:16:31;;;;;;;4.13;2.78;;;0.40;99.90;;;;;;5018827;28;20034;-79
2021/12/16 04:18:59;;;;;;;4.25;2.50;;;0.40;99.90;;;;;;5000014;28;20038;-80
2021/12/16 04:21:27;;;;;;;3.85;2.50;;;0.40;99.90;;;;;;5013382;28;20405;-79
2021/12/16 04:23:56;;;;;;;3.28;2.30;;;0.40;99.90;;;;;;5014303;28;20038;-79
2021/12/16 04:26:24;;;;;;;4.35;2.30;;;0.40;99.90;;;;;;5012580;28;20038;-79
2021/12/16 04:28:50;;;;;;;4.22;2.70;;;0.50;99.90;;;;;;5013041;28;20042;-79
2021/12/16 04:31:16;;;;;;;4.18;2.45;;;0.50;99.90;;;;;;5012667;28;20071;-79
2021/12/16 04:33:42;;;;;;;3.80;2.60;;;0.50;99.90;;;;;;5014206;28;20057;-79
2021/12/16 04:36:10;;;;;;;3.58;2.60;;;0.50;99.90;;;;;;5012461;28;20034;-80
2021/12/16 04:38:38;;;;;;;4.80;2.90;;;0.50;99.90;;;;;;5012608;28;20608;-80
2021/12/16 04:41:09;;;;;;;3.75;2.40;;;0.50;99.90;;;;;;5014634;28;20408;-80
2021/12/16 04:43:40;;;;;;;4.28;2.45;;;0.50;99.90;;;;;;5014208;28;20038;-80
2021/12/16 04:46:10;;;;;;;;;;;0.60;99.90;;;;;;5014513;28;20030;-80
2021/12/16 04:48:38;;;;;;;4.50;2.70;;;0.50;99.90;;;;;;5012738;28;20354;-80
2021/12/16 04:51:04;;;;;;;4.38;2.90;;;0.60;99.90;;;;;;5013076;28;20038;-79
2021/12/16 04:53:30;;;;;;;6.00;2.90;;;0.60;99.90;;;;;;5012245;28;20038;-79
2021/12/16 04:55:56;;;;;;;5.90;3.30;;;0.60;99.90;;;;;;5013672;28;20543;-81
2021/12/16 04:58:23;;;;;;;5.05;3.22;;;0.60;99.90;;;;;;5016959;28;20407;-80
2021/12/16 05:00:49;;;;;;;6.15;3.60;;;0.60;99.90;;;;;;5015640;28;20038;-80
2021/12/16 05:03:15;;;;;;;6.03;3.70;;;0.60;99.90;;;;;;5015769;28;20345;-81
2021/12/16 05:05:41;;;;;;;8.80;4.55;;;0.60;99.90;;;;;;5010143;28;20042;-79
2021/12/16 05:08:06;;;;;;;8.98;4.38;;;0.50;99.90;;;;;;5014815;28;20392;-79
2021/12/16 05:10:32;;;;;;;8.23;4.90;;;0.50;99.90;;;;;;5037183;28;20057;-80
2021/12/16 05:12:58;;;;;;;8.05;4.30;;;0.50;99.90;;;;;;5036558;28;20041;-80
2021/12/16 05:15:32;;;;;;;8.25;4.47;;;0.50;99.90;;;;;;5018978;28;20030;-79
2021/12/16 05:18:00;;;;;;;7.05;3.95;;;0.50;99.90;;;;;;5014976;28;20411;-80
2021/12/16 05:20:31;;;;;;;7.68;3.67;;;0.50;99.90;;;;;;5036511;28;20368;-80
2021/12/16 05:28:12;;;;;;;17.90;10.18;;;0.60;99.90;;;;;;5036896;28;20042;-81
2021/12/16 05:30:38;;;;;;;11.98;6.95;;;0.70;99.90;;;;;;5019033;28;20030;-79
2021/12/16 05:33:04;;;;;;;11.25;5.82;;;0.70;99.90;;;;;;5018799;28;20037;-79
2021/12/16 05:35:31;;;;;;;9.38;5.20;;;0.70;99.90;;;;;;5018731;28;20053;-80
2021/12/16 05:37:57;;;;;;;9.27;5.15;;;0.80;99.90;;;;;;5018467;28;20036;-78
2021/12/16 05:40:25;;;;;;;8.10;4.65;;;0.70;99.90;;;;;;5018575;28;20038;-78
2021/12/16 05:42:53;;;;;;;9.73;5.60;;;0.70;99.90;;;;;;5036573;28;20117;-80
2021/12/16 05:45:23;;;;;;;11.68;6.90;;;0.70;99.90;;;;;;5018285;28;20091;-83
2021/12/16 05:47:50;;;;;;;11.13;6.35;;;0.80;99.90;;;;;;5019344;28;20475;-82
2021/12/16 05:50:17;;;;;;;9.80;5.43;;;0.80;99.90;;;;;;5018157;28;20033;-79
2021/12/16 05:52:42;;;;;;;9.88;6.03;;;0.90;99.90;;;;;;5018540;28;20061;-80
2021/12/16 05:55:10;;;;;;;16.85;9.13;;;0.90;99.90;;;;;;5036581;28;20456;-78
2021/12/16 05:57:37;;;;;;;14.70;8.40;;;0.90;99.90;;;;;;5018336;28;20049;-81
2021/12/16 06:00:08;;;;;;;13.75;7.78;;;0.90;99.90;;;;;;5019007;28;20065;-77
2021/12/16 06:02:34;;;;;;;14.98;7.85;;;0.90;99.90;;;;;;5018901;28;20096;-79
2021/12/16 06:04:59;;;;;;;16.58;8.10;;;0.90;99.90;;;;;;5018741;28;20447;-78
2021/12/16 06:07:25;;;;;;;12.45;7.05;;;0.90;99.90;;;;;;5017352;28;20037;-79
2021/12/16 06:09:51;;;;;;;11.55;6.00;;;0.90;99.90;;;;;;5018110;28;20056;-78
2021/12/16 06:12:16;;;;;;;11.68;5.88;;;0.90;99.90;;;;;;5018247;28;20041;-79
2021/12/16 06:28:28;;;;;;;24.58;13.20;;;1.10;99.90;;;;;;5035479;28;20044;-80
2021/12/16 06:30:54;;;;;;;18.02;9.82;;;1.10;99.90;;;;;;5013739;28;20152;-80
2021/12/16 06:33:25;;;;;;;14.27;7.20;;;1.10;99.90;;;;;;4995461;28;20125;-80
2021/12/16 06:35:53;;;;;;;11.93;6.35;;;1.10;99.90;;;;;;4996780;28;20073;-80
2021/12/16 06:38:21;;;;;;;8.00;4.72;;;1.10;99.90;;;;;;4996216;28;20084;-80
2021/12/16 06:40:47;;;;;;;10.55;4.65;;;1.10;99.90;;;;;;5012525;28;20068;-80
2021/12/16 06:43:15;;;;;;;6.78;3.97;;;1.10;99.90;;;;;;4995383;28;20442;-82
2021/12/16 06:45:44;;;;;;;8.23;4.30;;;1.10;99.90;;;;;;5011076;28;20034;-81
2021/12/16 06:48:15;;;;;;;6.72;4.00;;;1.10;99.90;;;;;;4994377;28;20128;-78
2021/12/16 06:50:49;;;;;;;7.35;4.18;;;1.10;99.90;;;;;;4994646;28;20063;-80
2021/12/16 06:53:23;;;;;;;8.25;5.30;;;1.10;99.90;;;;;;5011971;28;20026;-78
2021/12/16 06:56:02;;;;;;;10.55;6.15;;;1.10;99.90;;;;;;4995412;28;20053;-78
2021/12/16 07:01:05;;;;;;;12.38;7.20;;;1.10;99.90;;;;;;5015268;28;20045;-79
2021/12/16 07:03:44;;;;;;;10.18;5.78;;;1.00;99.90;;;;;;5015597;28;20357;-79
2021/12/16 07:06:10;;;;;;;11.15;5.18;;;1.00;99.90;;;;;;4997824;28;20030;-79
2021/12/16 07:08:38;;;;;;;7.57;4.80;;;1.10;99.90;;;;;;4997738;28;20038;-79
2021/12/16 07:11:05;;;;;;;7.80;4.38;;;1.10;99.90;;;;;;4997448;28;20041;-80
2021/12/16 07:13:37;;;;;;;8.95;5.38;;;1.10;99.90;;;;;;4997807;28;20427;-79
2021/12/16 07:16:03;;;;;;;13.82;7.15;;;1.20;99.90;;;;;;4997783;28;20042;-79
2021/12/16 07:18:29;;;;;;;12.98;7.50;;;1.10;99.90;;;;;;4997185;28;20041;-80
2021/12/16 07:20:54;;;;;;;12.65;6.75;;;1.20;99.90;;;;;;5014460;28;20038;-80
2021/12/16 07:23:21;;;;;;;14.50;6.88;;;1.20;99.90;;;;;;5014897;28;20156;-79
2021/12/16 07:25:47;;;;;;;10.93;5.88;;;1.20;99.90;;;;;;5014857;28;20030;-80
2021/12/16 07:28:13;;;;;;;7.97;4.63;;;1.20;99.90;;;;;;4997237;28;20030;-80
2021/12/16 07:30:41;;;;;;;7.75;4.28;;;1.30;99.90;;;;;;5015086;28;20033;-80
2021/12/16 07:33:08;;;;;;;7.22;4.00;;;1.30;99.90;;;;;;5014764;28;20472;-80
2021/12/16 07:35:35;;;;;;;6.47;3.72;;;1.30;99.90;;;;;;5014372;28;20089;-79
2021/12/16 07:38:01;;;;;;;6.47;3.28;;;1.30;99.90;;;;;;5013104;28;20042;-80
2021/12/16 07:40:29;;;;;;;6.18;3.63;;;1.30;99.90;;;;;;4996824;28;20144;-80
2021/12/16 07:43:10;;;;;;;5.00;2.90;;;1.30;99.90;;;;;;4996809;28;20042;-79
2021/12/16 07:45:41;;;;;;;;;;;1.40;99.90;;;;;;4997358;28;20030;-78
2021/12/16 07:48:08;;;;;;;5.68;3.25;;;1.30;99.90;;;;;;5020847;28;19909;-80
2021/12/16 07:50:34;;;;;;;5.03;3.05;;;1.30;99.90;;;;;;5032911;28;20065;-81
2021/12/16 07:53:00;;;;;;;5.43;2.78;;;1.30;99.90;;;;;;5015052;28;20364;-78
2021/12/16 07:55:27;;;;;;;5.32;3.20;;;1.40;99.90;;;;;;5032916;28;20036;-78
2021/12/16 07:57:52;;;;;;;4.78;2.97;;;1.40;99.90;;;;;;5032874;28;20030;-78
2021/12/16 08:00:28;;;;;;;7.50;3.90;;;1.40;99.90;;;;;;5014537;28;20055;-79
2021/12/16 08:02:54;;;;;;;7.25;4.35;;;1.40;99.90;;;;;;5014590;28;20140;-79
2021/12/16 08:05:23;;;;;;;8.70;4.80;;;1.40;99.90;;;;;;5014595;28;20055;-80
2021/12/16 08:07:49;;;;;;;7.55;4.35;;;1.40;99.90;;;;;;5032229;28;20029;-78
2021/12/16 08:10:19;;;;;;;10.60;5.20;;;1.50;99.90;;;;;;5032221;28;20033;-80
2021/12/16 08:12:45;;;;;;;10.65;6.57;;;1.50;99.90;;;;;;5030069;28;20033;-81
2021/12/16 08:15:14;;;;;;;11.55;6.43;;;1.50;99.90;;;;;;5032158;28;20079;-79
2021/12/16 08:17:40;;;;;;;14.57;7.13;;;1.60;99.90;;;;;;5014543;28;20410;-77
2021/12/16 08:20:07;;;;;;;10.38;6.35;;;1.50;99.90;;;;;;5014346;28;20048;-77
2021/12/16 08:22:33;;;;;;;14.57;6.88;;;1.60;99.90;;;;;;5032060;28;20038;-81
2021/12/16 08:24:58;;;;;;;14.13;7.20;;;1.60;99.90;;;;;;5014063;28;20091;-78
2021/12/16 08:27:25;;;;;;;13.00;7.20;;;1.70;99.90;;;;;;5014152;28;20116;-82
2021/12/16 08:29:50;;;;;;;13.13;7.70;;;1.70;99.90;;;;;;5014071;28;20124;-79
2021/12/16 08:32:16;;;;;;;12.80;7.25;;;1.70;99.90;;;;;;5014224;28;20547;-78
2021/12/16 08:34:45;;;;;;;12.43;7.22;;;1.70;99.90;;;;;;5031865;28;20506;-78
2021/12/16 08:37:13;;;;;;;14.88;7.18;;;1.70;99.90;;;;;;5014153;28;20037;-78
2021/12/16 08:39:39;;;;;;;13.00;6.65;;;1.70;99.90;;;;;;5014329;28;20037;-78
2021/12/16 08:42:09;;;;;;;12.60;7.18;;;1.70;99.90;;;;;;5031718;28;20040;-79
2021/12/16 08:44:35;;;;;;;12.48;7.07;;;1.70;99.90;;;;;;5013977;28;20388;-80
2021/12/16 08:47:08;;;;;;;13.98;7.30;;;1.80;99.90;;;;;;5032144;28;20471;-78
2021/12/16 08:49:34;;;;;;;10.75;6.18;;;1.80;99.90;;;;;;5031934;28;20096;-79
2021/12/16 08:52:05;;;;;;;12.88;6.65;;;1.80;99.90;;;;;;5015387;28;20033;-78
2021/12/16 08:54:31;;;;;;;11.10;6.40;;;1.80;99.90;;;;;;5015246;28;20537;-77
2021/12/16 08:56:57;;;;;;;10.43;6.20;;;1.90;99.90;;;;;;5009814;28;20042;-84
2021/12/16 08:59:24;;;;;;;11.82;6.47;;;1.90;99.90;;;;;;5010132;28;20029;-80
2021/12/16 09:01:53;;;;;;;10.45;5.95;;;1.90;99.90;;;;;;5027221;28;20037;-80
2021/12/16 09:04:22;;;;;;;10.07;5.95;;;1.90;99.90;;;;;;5008782;28;20372;-79
2021/12/16 09:06:53;;;;;;;12.93;6.50;;;1.90;99.90;;;;;;5009991;28;20033;-81
2021/12/16 09:09:19;;;;;;;11.90;6.30;;;1.90;99.90;;;;;;5027969;28;20022;-79
2021/12/16 09:12:02;;;;;;;11.88;6.55;;;1.90;99.90;;;;;;5026878;28;20124;-81
2021/12/16 09:14:28;;;;;;;13.65;7.07;;;1.90;99.90;;;;;;5008831;28;20045;-79
2021/12/16 09:16:54;;;;;;;10.82;5.90;;;1.90;99.90;;;;;;5026533;28;20034;-79
2021/12/16 09:19:20;;;;;;;12.95;6.65;;;1.90;99.90;;;;;;5010505;28;20095;-79
2021/12/16 09:21:46;;;;;;;13.13;7.35;;;2.00;99.90;;;;;;5010434;28;20132;-79
2021/12/16 09:24:14;;;;;;;15.68;8.23;;;2.00;99.90;;;;;;5009953;28;20095;-80
2021/12/16 09:26:42;;;;;;;15.02;7.63;;;2.00;99.90;;;;;;5010931;28;20087;-80
2021/12/16 09:29:08;;;;;;;16.80;9.23;;;2.10;99.90;;;;;;5028172;28;20045;-79
2021/12/16 09:31:34;;;;;;;17.83;9.50;;;2.10;99.90;;;;;;5009897;28;20055;-79
2021/12/16 09:34:07;;;;;;;18.92;10.57;;;2.20;99.90;;;;;;5010654;28;20045;-80
2021/12/16 09:36:36;;;;;;;21.25;11.27;;;2.20;99.90;;;;;;5027986;28;20042;-80
2021/12/16 09:39:06;;;;;;;18.23;11.05;;;2.30;99.90;;;;;;5017644;28;20128;-79
2021/12/16 09:41:33;;;;;;;18.35;10.98;;;2.30;99.90;;;;;;5008029;28;20104;-79
2021/12/16 09:44:00;;;;;;;19.23;10.43;;;2.30;99.90;;;;;;4993880;28;20085;-83
2021/12/16 09:46:28;;;;;;;19.80;10.52;;;2.40;99.90;;;;;;5012385;28;20026;-78
2021/12/16 09:48:56;;;;;;;17.77;9.88;;;2.40;99.90;;;;;;5012152;28;20041;-79
2021/12/16 09:51:25;;;;;;;16.58;9.02;;;2.40;99.90;;;;;;5031781;28;20040;-84
2021/12/16 09:54:05;;;;;;;15.75;7.72;;;2.40;99.90;;;;;;5032417;28;20091;-81
2021/12/16 09:56:32;;;;;;;14.05;7.30;;;2.40;99.90;;;;;;5030123;28;20033;-82
2021/12/16 09:59:00;;;;;;;14.70;7.63;;;2.50;99.90;;;;;;5013861;28;20531;-77
2021/12/16 10:01:28;;;;;;;13.57;7.07;;;2.50;99.90;;;;;;5030872;28;20042;-80
2021/12/16 10:04:00;;;;;;;14.68;7.88;;;2.50;99.90;;;;;;5013469;28;20033;-85
2021/12/16 10:06:27;;;;;;;16.25;7.45;;;2.50;99.90;;;;;;5013913;28;20502;-81
2021/12/16 10:08:52;;;;;;;14.63;8.00;;;2.50;99.90;;;;;;5013659;28;20033;-79
2021/12/16 10:11:19;;;;;;;13.77;7.53;;;2.50;99.90;;;;;;5012808;28;20039;-78
2021/12/16 10:19:09;;;;;;;20.58;9.95;;;2.60;99.90;;;;;;5030874;28;20088;-78
2021/12/16 10:21:35;;;;;;;23.25;11.82;;;2.60;99.90;;;;;;5013440;28;20076;-79
2021/12/16 10:24:01;;;;;;;21.17;10.40;;;2.60;99.90;;;;;;5013197;28;20038;-81
2021/12/16 10:26:27;;;;;;;20.17;10.05;;;2.60;99.90;;;;;;5012888;28;20493;-80
2021/12/16 10:28:58;;;;;;;18.65;9.48;;;2.70;99.90;;;;;;5013880;28;20403;-82
2021/12/16 10:31:28;;;;;;;16.80;9.35;;;2.60;99.90;;;;;;5031654;28;20120;-79
2021/12/16 10:34:07;;;;;;;18.27;9.48;;;2.60;99.90;;;;;;5030616;28;20076;-78
2021/12/16 10:36:40;;;;;;;17.77;9.40;;;2.60;99.90;;;;;;5030701;28;20045;-78
2021/12/16 10:39:14;;;;;;;16.88;8.75;;;2.60;99.90;;;;;;5012580;28;20033;-78
2021/12/16 10:41:58;;;;;;;18.63;9.25;;;2.60;99.90;;;;;;5031818;28;20080;-78
2021/12/16 10:44:27;;;;;;;18.05;8.70;;;2.60;99.90;;;;;;5017000;28;20037;-78
2021/12/16 10:47:05;;;;;;;15.93;8.48;;;2.60;99.90;;;;;;5018858;28;20121;-78
2021/12/16 10:49:57;;;;;;;19.52;9.20;;;2.60;99.90;;;;;;5030738;28;20103;-78
2021/12/16 10:52:31;;;;;;;17.15;9.07;;;2.60;99.90;;;;;;5026564;28;20128;-80
2021/12/16 10:54:58;;;;;;;18.35;9.80;;;2.60;99.90;;;;;;5030980;28;20490;-80
2021/12/16 10:57:27;;;;;;;14.93;8.45;;;2.60;99.90;;;;;;5012017;28;20503;-80
2021/12/16 11:00:07;;;;;;;18.08;9.30;;;2.60;99.90;;;;;;5011756;28;20045;-78
2021/12/16 11:02:36;;;;;;;14.60;7.93;;;2.60;99.90;;;;;;5011425;28;20045;-79
2021/12/16 11:05:10;;;;;;;17.67;8.82;;;2.60;99.90;;;;;;5012376;28;20435;-81
2021/12/16 11:07:42;;;;;;;17.77;9.02;;;2.60;99.90;;;;;;5013023;28;20439;-78
2021/12/16 11:10:18;;;;;;;16.33;8.77;;;2.60;99.90;;;;;;5012634;28;20059;-78
2021/12/16 11:12:52;;;;;;;15.18;8.05;;;2.60;99.90;;;;;;5012864;28;20034;-78
2021/12/16 11:15:33;;;;;;;18.52;9.27;;;2.70;99.90;;;;;;5012379;28;20036;-78
2021/12/16 11:18:04;;;;;;;15.43;7.95;;;2.80;99.90;;;;;;5012691;28;20037;-82
2021/12/16 11:20:56;;;;;;;17.15;8.95;;;2.80;99.90;;;;;;5011811;28;20061;-80
2021/12/16 11:23:26;;;;;;;18.85;9.25;;;2.80;99.90;;;;;;5012260;28;20132;-82
2021/12/16 11:25:57;;;;;;;15.60;8.35;;;2.80;99.90;;;;;;5012809;28;20124;-79
2021/12/16 11:28:28;;;;;;;16.45;8.50;;;2.80;99.90;;;;;;5012202;28;20030;-78
2021/12/16 11:31:04;;;;;;;;;;;2.80;99.90;;;;;;5012188;28;20033;-81
2021/12/16 11:34:01;;;;;;;17.15;9.25;;;2.80;99.90;;;;;;5011785;28;19955;-82
2021/12/16 11:36:37;;;;;;;17.75;9.27;;;2.80;99.90;;;;;;5009071;28;20040;-86
2021/12/16 11:39:27;;;;;;;14.18;8.43;;;2.80;99.90;;;;;;5013034;28;20111;-83
2021/12/16 11:42:00;;;;;;;14.95;8.40;;;2.70;99.90;;;;;;5013291;28;20052;-81
2021/12/16 11:44:26;;;;;;;13.60;7.95;;;2.70;99.90;;;;;;5016482;28;20403;-82
2021/12/16 11:46:59;;;;;;;15.18;8.27;;;2.80;99.90;;;;;;5013472;28;20033;-84
2021/12/16 11:49:35;;;;;;;17.75;8.63;;;2.90;99.90;;;;;;5030443;28;20120;-80
2021/12/16 11:52:03;;;;;;;16.75;8.85;;;2.90;99.90;;;;;;5030068;28;20033;-81
2021/12/16 11:55:05;;;;;;;16.50;9.13;;;2.80;99.90;;;;;;5011813;28;20041;-81
2021/12/16 11:57:35;;;;;;;16.27;8.98;;;2.80;99.90;;;;;;5005110;28;20107;-81
2021/12/16 12:00:10;;;;;;;18.20;9.38;;;2.80;99.90;;;;;;5012497;28;20168;-83
2021/12/16 12:02:40;;;;;;;17.02;9.25;;;2.80;99.90;;;;;;5030398;28;20037;-86
2021/12/16 12:05:16;;;;;;;17.33;8.77;;;2.80;99.90;;;;;;5029563;28;20036;-81
2021/12/16 12:07:45;;;;;;;17.17;8.93;;;2.90;99.90;;;;;;5012737;28;20087;-82
2021/12/16 12:10:12;;;;;;;17.75;9.65;;;2.90;99.90;;;;;;5029517;28;20037;-83
2021/12/16 12:12:49;;;;;;;19.08;9.85;;;2.90;99.90;;;;;;5028213;28;20476;-82
2021/12/16 12:15:18;;;;;;;16.83;8.95;;;2.90;99.90;;;;;;5028083;28;20040;-82
2021/12/16 12:17:53;;;;;;;19.52;9.40;;;2.90;99.90;;;;;;5011595;28;20056;-86
2021/12/16 12:20:26;;;;;;;18.65;9.77;;;2.90;99.90;;;;;;5027728;28;20045;-87
2021/12/16 12:22:55;;;;;;;19.77;10.30;;;2.90;99.90;;;;;;5012214;28;20049;-81
2021/12/16 12:25:21;;;;;;;16.27;8.77;;;2.90;99.90;;;;;;5026218;28;20656;-81
2021/12/16 12:27:47;;;;;;;17.17;8.68;;;3.00;99.90;;;;;;5027995;28;20128;-81
2021/12/16 12:30:14;;;;;;;16.50;9.20;;;3.00;99.90;;;;;;5029316;28;20395;-84
2021/12/16 12:32:46;;;;;;;16.13;8.70;;;3.00;99.90;;;;;;5022863;28;20501;-84
2021/12/16 12:35:20;;;;;;;59.00;33.47;;;3.00;99.90;;;;;;5030458;28;20048;-85
2021/12/16 12:37:52;;;;;;;42.63;22.05;;;3.00;99.90;;;;;;5012228;28;20041;-82
2021/12/16 12:40:37;;;;;;;26.60;13.90;;;3.00;99.90;;;;;;5029889;28;20719;-80
2021/12/16 12:43:04;;;;;;;23.58;11.77;;;3.10;99.90;;;;;;5029419;28;20383;-80
2021/12/16 12:45:34;;;;;;;17.35;9.50;;;3.10;99.90;;;;;;4993101;28;20044;-83
2021/12/16 12:48:02;;;;;;;18.35;8.63;;;3.20;99.90;;;;;;4992613;28;20125;-84
2021/12/16 12:50:35;;;;;;;15.50;8.88;;;3.10;99.90;;;;;;4992471;28;20137;-84
2021/12/16 12:53:13;;;;;;;15.75;8.40;;;3.20;99.90;;;;;;4993148;28;20044;-81
2021/12/16 12:55:41;;;;;;;18.02;8.80;;;3.10;99.90;;;;;;5016473;28;20046;-82
2021/12/16 12:58:18;;;;;;;27.17;9.40;;;3.10;99.90;;;;;;5010098;28;20045;-82
2021/12/16 13:00:49;;;;;;;21.17;9.93;;;3.10;99.90;;;;;;5011676;28;20029;-82
2021/12/16 13:03:17;;;;;;;;;;;3.00;99.90;;;;;;5030015;28;20550;-86
2021/12/16 13:06:03;;;;;;;22.25;11.23;;;2.90;99.90;;;;;;5012079;28;19944;-82
2021/12/16 13:08:34;;;;;;;;;;;2.90;99.90;;;;;;5028534;28;20050;-84
2021/12/16 13:11:18;;;;;;;20.08;10.18;;;2.80;99.90;;;;;;5011265;28;19970;-81
2021/12/16 13:14:14;;;;;;;20.80;10.50;;;2.80;99.90;;;;;;5028377;28;20040;-84
2021/12/16 13:31:34;;;;;;;16.13;8.25;;;2.60;99.90;;;;;;5020910;28;20132;-81
2021/12/16 13:34:48;;;;;;;15.90;8.05;;;2.50;99.90;;;;;;5020537;28;20046;-83
2021/12/16 13:37:23;;;;;;;15.50;8.20;;;2.50;99.90;;;;;;5020057;28;20492;-84
2021/12/16 13:40:05;;;;;;;18.52;8.82;;;2.50;99.90;;;;;;5010101;28;20103;-84
2021/12/16 13:42:57;;;;;;;17.73;8.43;;;2.50;99.90;;;;;;5010466;28;20156;-81
2021/12/16 13:45:27;;;;;;;15.27;7.72;;;2.50;99.90;;;;;;4997460;28;20544;-81
2021/12/16 14:07:59;;;;;;;19.50;9.57;;;2.20;99.90;;;;;;5028307;28;20116;-82
2021/12/16 14:10:57;;;;;;;29.38;15.18;;;2.20;99.90;;;;;;4998301;28;20714;-88
2021/12/16 14:25:27;;;;;;;20.65;9.95;;;2.20;99.90;;;;;;5029380;28;20064;-82
2021/12/16 14:50:30;;;;;;;25.15;12.90;;;2.30;99.90;;;;;;5022025;28;20038;-80
2021/12/16 14:52:57;;;;;;;26.50;12.40;;;2.20;99.90;;;;;;5001814;28;20113;-80
2021/12/16 14:55:23;;;;;;;22.42;11.52;;;2.20;99.90;;;;;;5010964;28;20037;-77
2021/12/16 14:57:53;;;;;;;20.35;11.10;;;2.30;99.90;;;;;;5008412;28;20041;-83
2021/12/16 15:00:35;;;;;;;25.27;11.85;;;2.20;99.90;;;;;;5011986;28;20064;-80
2021/12/16 15:03:10;;;;;;;27.10;12.50;;;2.20;99.90;;;;;;5010405;28;20041;-84
2021/12/16 15:05:45;;;;;;;25.20;11.07;;;2.20;99.90;;;;;;5008328;28;20038;-84
2021/12/16 15:08:44;;;;;;;27.17;12.75;;;2.20;99.90;;;;;;5010324;28;20391;-81
2021/12/16 15:11:16;;;;;;;24.52;11.88;;;2.20;99.90;;;;;;5007897;28;20656;-80
2021/12/16 15:13:50;;;;;;;24.58;12.65;;;2.20;99.90;;;;;;5009249;28;20053;-78
2021/12/16 15:35:54;;;;;;;22.73;11.50;;;2.10;99.90;;;;;;5019319;28;20069;-80
2021/12/16 15:38:39;;;;;;;24.60;11.95;;;2.10;99.90;;;;;;5009990;28;20041;-79
2021/12/16 15:43:36;;;;;;;24.40;11.00;;;2.20;99.90;;;;;;5023855;28;20104;-79
2021/12/16 15:46:05;;;;;;;21.77;10.80;;;2.20;99.90;;;;;;5022302;28;20045;-80
2021/12/16 15:48:31;;;;;;;22.83;10.77;;;2.10;99.90;;;;;;5008288;28;20549;-81
2021/12/16 15:51:10;;;;;;;25.48;12.32;;;2.10;99.90;;;;;;4991925;28;20048;-80
2021/12/16 15:53:46;;;;;;;25.63;12.68;;;2.20;99.90;;;;;;5007017;28;20199;-78
2021/12/16 15:56:25;;;;;;;29.73;14.52;;;2.20;99.90;;;;;;5013458;28;20037;-83
2021/12/16 15:59:03;;;;;;;46.47;22.67;;;2.20;99.90;;;;;;5009756;28;20187;-82
2021/12/16 16:01:33;;;;;;;35.28;17.67;;;2.20;99.90;;;;;;5027209;28;20049;-78
2021/12/16 16:04:02;;;;;;;29.40;14.20;;;2.20;99.90;;;;;;5009779;28;20102;-78
2021/12/16 16:06:28;;;;;;;24.50;12.73;;;2.30;99.90;;;;;;5028239;28;20030;-78
2021/12/16 16:09:10;;;;;;;27.90;12.80;;;2.30;99.90;;;;;;5010643;28;20168;-80
2021/12/16 16:11:37;;;;;;;25.10;11.38;;;2.30;99.90;;;;;;5004542;28;20104;-80
2021/12/16 16:14:05;;;;;;;23.90;11.85;;;2.30;99.90;;;;;;5024804;28;20029;-82
2021/12/16 16:16:43;;;;;;;22.92;11.40;;;2.40;99.90;;;;;;5008783;28;20061;-80
2021/12/16 16:19:10;;;;;;;23.63;11.95;;;2.30;99.90;;;;;;5020771;28;20037;-79
2021/12/16 16:21:40;;;;;;;29.02;13.35;;;2.30;99.90;;;;;;5006863;28;20495;-78
2021/12/16 16:24:20;;;;;;;26.77;13.07;;;2.30;99.90;;;;;;5004002;28;20033;-85
2021/12/16 16:26:48;;;;;;;25.45;12.70;;;2.40;99.90;;;;;;5024997;28;20487;-84
2021/12/16 16:29:17;;;;;;;23.00;11.98;;;2.40;99.90;;;;;;5010540;28;20037;-79
2021/12/16 16:31:43;;;;;;;27.65;13.02;;;2.40;99.90;;;;;;5004789;28;20030;-81
2021/12/16 16:34:14;;;;;;;26.77;13.48;;;2.40;99.90;;;;;;5009732;28;20053;-79
2021/12/16 16:36:47;;;;;;;26.65;12.40;;;2.40;99.90;;;;;;5008338;28;20400;-84
2021/12/16 16:39:17;;;;;;;24.90;12.52;;;2.40;99.90;;;;;;5009051;28;20041;-82
2021/12/16 16:41:50;;;;;;;24.38;12.65;;;2.40;99.90;;;;;;5008401;28;20045;-80
2021/12/16 16:44:20;;;;;;;26.65;13.32;;;2.40;99.90;;;;;;5010147;28;20034;-80
2021/12/16 16:46:58;;;;;;;23.35;11.05;;;2.40;99.90;;;;;;5025334;28;20022;-79
2021/12/16 16:49:46;;;;;;;24.42;12.88;;;2.40;99.90;;;;;;5024127;28;20033;-80
2021/12/16 16:52:33;;;;;;;24.77;12.30;;;2.40;99.90;;;;;;5008029;28;20234;-80
2021/12/16 16:55:31;;;;;;;20.60;11.30;;;2.50;99.90;;;;;;5021670;28;20038;-84
2021/12/16 16:58:15;;;;;;;23.35;11.02;;;2.50;99.90;;;;;;5009947;28;20041;-81
2021/12/16 17:00:50;;;;;;;28.15;12.30;;;2.50;99.90;;;;;;5033717;28;20566;-83
2021/12/16 17:03:21;;;;;;;23.73;12.55;;;2.50;99.90;;;;;;5003639;28;20042;-83
2021/12/16 17:05:57;;;;;;;24.10;12.05;;;2.50;99.90;;;;;;5012877;28;20026;-82
2021/12/16 17:08:31;;;;;;;29.48;13.25;;;2.50;99.90;;;;;;5010155;28;20021;-83
2021/12/16 17:11:03;;;;;;;28.63;13.27;;;2.60;99.90;;;;;;5028953;28;20440;-83
2021/12/16 17:18:54;;;;;;;27.27;12.95;;;2.60;99.90;;;;;;5031951;28;20029;-80
2021/12/16 17:21:32;;;;;;;31.77;15.25;;;2.50;99.90;;;;;;5014037;28;20435;-82
2021/12/16 17:24:04;;;;;;;30.88;13.90;;;2.60;99.90;;;;;;5027221;28;20041;-84